Terminal Aerodrome Forecast
Issued by NWS Corpus Christi, TX

Home | Current Version | Previous Version | Text Only | Print | Product List | Glossary On
Versions: 1 2 3 4 5 6 7 8 9 10 11 12 13 14 15 16
000
FTUS44 KCRP 011100
TAFVCT
TAF
KVCT 011140Z 0112/0212 VRB03KT P6SM VCSH SCT020
      TEMPO 0112/0115 SHRA BKN020
     FM011500 01005KT P6SM VCTS OVC035CB
      TEMPO 0119/0122 TSRA OVC030CB
     FM020300 04005KT P6SM BKN050=

USA.gov is the U.S. government's official web portal to all federal, state and local government web resources and services.